createdAt,value
2022-12-16T00:01:23.570Z,19.50
2022-12-16T00:03:55.455Z,19.49
2022-12-16T00:06:24.266Z,19.48
2022-12-16T00:08:52.004Z,19.47
2022-12-16T00:11:19.950Z,19.47
2022-12-16T00:13:47.394Z,19.46
2022-12-16T00:16:16.673Z,19.46
2022-12-16T00:18:44.894Z,19.45
2022-12-16T00:21:12.378Z,19.44
2022-12-16T00:23:41.456Z,19.36
2022-12-16T00:26:08.811Z,19.43
2022-12-16T00:28:35.551Z,19.35
2022-12-16T00:31:02.300Z,19.39
2022-12-16T00:33:29.001Z,19.41
2022-12-16T00:35:56.423Z,19.41
2022-12-16T00:38:25.300Z,19.40
2022-12-16T00:40:52.241Z,19.38
2022-12-16T00:43:20.221Z,19.39
2022-12-16T00:45:47.846Z,19.38
2022-12-16T00:48:14.921Z,19.37
2022-12-16T00:50:41.631Z,19.37
2022-12-16T00:53:08.583Z,19.36
2022-12-16T00:55:35.217Z,19.36
2022-12-16T00:58:01.814Z,19.35
2022-12-16T01:00:28.385Z,19.34
2022-12-16T01:05:15.020Z,19.32
2022-12-16T01:07:42.003Z,19.33
2022-12-16T01:10:10.490Z,19.32
2022-12-16T01:12:37.867Z,19.32
2022-12-16T01:15:08.015Z,19.31
2022-12-16T01:17:35.300Z,19.31
2022-12-16T01:20:02.374Z,19.30
2022-12-16T01:22:32.058Z,19.29
2022-12-16T01:24:59.698Z,19.29
2022-12-16T01:27:27.224Z,19.29
2022-12-16T01:29:53.851Z,19.27
2022-12-16T01:32:22.362Z,19.26
2022-12-16T01:34:55.372Z,19.26
2022-12-16T01:37:23.748Z,19.26
2022-12-16T01:39:50.459Z,19.25
2022-12-16T01:42:20.220Z,19.25
2022-12-16T01:44:48.618Z,19.23
2022-12-16T01:47:18.602Z,19.24
2022-12-16T01:49:51.323Z,19.23
2022-12-16T01:52:26.079Z,19.22
2022-12-16T01:55:07.688Z,19.20
2022-12-16T01:57:40.911Z,19.15
2022-12-16T02:00:08.394Z,19.20
2022-12-16T02:02:41.968Z,19.20
2022-12-16T02:05:20.928Z,19.20
2022-12-16T02:08:06.018Z,19.19
2022-12-16T02:10:35.362Z,19.17
2022-12-16T02:13:14.348Z,19.17
2022-12-16T02:15:59.135Z,19.16
2022-12-16T02:18:25.629Z,19.16
2022-12-16T02:21:15.213Z,19.16
2022-12-16T02:23:54.018Z,19.16
2022-12-16T02:26:58.695Z,19.13
2022-12-16T02:29:34.091Z,19.12
2022-12-16T02:32:19.291Z,19.12
2022-12-16T02:34:59.027Z,19.11
2022-12-16T02:37:31.319Z,19.11
2022-12-16T02:40:04.042Z,19.10
2022-12-16T02:42:35.863Z,19.02
2022-12-16T02:45:14.918Z,19.10
2022-12-16T02:47:41.490Z,19.09
2022-12-16T02:50:21.614Z,19.10
2022-12-16T02:52:50.352Z,19.10
2022-12-16T02:55:17.005Z,19.09
2022-12-16T02:58:02.080Z,19.08
2022-12-16T03:00:39.979Z,19.08
2022-12-16T03:03:35.743Z,19.07
2022-12-16T03:06:04.684Z,19.06
2022-12-16T03:08:36.776Z,19.06
2022-12-16T03:11:05.855Z,19.00
2022-12-16T03:13:49.918Z,19.05
2022-12-16T03:16:20.588Z,19.05
2022-12-16T03:18:52.907Z,19.05
2022-12-16T03:21:25.779Z,19.05
2022-12-16T03:24:01.638Z,19.04
2022-12-16T03:26:34.480Z,19.04
2022-12-16T03:29:11.299Z,19.03
2022-12-16T03:32:00.653Z,19.01
2022-12-16T03:34:39.171Z,19.02
2022-12-16T03:37:09.496Z,19.01
2022-12-16T03:39:44.574Z,19.02
2022-12-16T03:42:13.459Z,19.01
2022-12-16T03:44:40.050Z,19.00
2022-12-16T03:47:06.962Z,18.99
2022-12-16T03:49:33.571Z,18.99
2022-12-16T03:52:00.184Z,18.98
2022-12-16T03:54:26.847Z,18.95
2022-12-16T03:56:54.234Z,18.98
2022-12-16T03:59:20.787Z,18.98
2022-12-16T04:01:47.681Z,18.96
2022-12-16T04:04:14.234Z,18.96
2022-12-16T04:06:40.826Z,18.96
2022-12-16T04:11:49.926Z,18.87
2022-12-16T04:14:35.245Z,18.94
2022-12-16T04:17:20.850Z,18.94
2022-12-16T04:20:06.441Z,18.91
2022-12-16T04:22:58.652Z,18.91
2022-12-16T04:25:30.682Z,18.82
2022-12-16T04:27:58.548Z,18.90
2022-12-16T04:30:27.618Z,18.89
2022-12-16T04:33:17.898Z,18.90
2022-12-16T04:36:03.707Z,18.90
2022-12-16T04:38:48.903Z,18.89
2022-12-16T04:41:34.479Z,18.88
2022-12-16T04:44:19.698Z,18.88
2022-12-16T04:47:05.118Z,18.87
2022-12-16T04:49:50.491Z,18.86
2022-12-16T04:52:36.651Z,18.85
2022-12-16T04:55:21.968Z,18.85
2022-12-16T04:58:09.989Z,18.58
2022-12-16T05:00:55.019Z,18.84
2022-12-16T05:03:41.343Z,18.84
2022-12-16T05:06:26.578Z,18.83
2022-12-16T05:09:11.620Z,18.83
2022-12-16T05:11:56.822Z,18.81
2022-12-16T05:14:42.106Z,18.81
2022-12-16T05:17:27.330Z,18.79
2022-12-16T05:20:12.758Z,18.77
2022-12-16T05:22:57.819Z,18.80
2022-12-16T05:25:42.721Z,18.80
2022-12-16T05:28:28.022Z,18.79
2022-12-16T05:31:13.135Z,18.79
2022-12-16T05:33:58.447Z,18.79
2022-12-16T05:36:43.786Z,18.78
2022-12-16T05:39:28.959Z,18.78
2022-12-16T05:42:14.692Z,18.78
2022-12-16T05:44:59.923Z,18.76
2022-12-16T05:47:45.690Z,18.77
2022-12-16T05:50:31.067Z,18.76
2022-12-16T05:53:27.722Z,18.76
2022-12-16T05:56:13.075Z,18.76
2022-12-16T05:58:57.947Z,18.75
2022-12-16T06:01:43.068Z,18.75
2022-12-16T06:04:28.311Z,18.50
2022-12-16T06:07:13.579Z,18.75
2022-12-16T06:09:58.491Z,18.74
2022-12-16T06:12:43.670Z,18.66
2022-12-16T06:15:29.479Z,18.72
2022-12-16T06:18:14.666Z,18.72
2022-12-16T06:21:00.227Z,18.73
2022-12-16T06:23:45.379Z,18.72
2022-12-16T06:26:31.054Z,18.71
2022-12-16T06:29:16.101Z,18.72
2022-12-16T06:32:01.257Z,18.71
2022-12-16T06:34:46.805Z,18.70
2022-12-16T06:37:32.077Z,18.62
2022-12-16T06:40:18.409Z,18.69
2022-12-16T06:43:03.610Z,18.69
2022-12-16T06:45:59.553Z,18.69
2022-12-16T06:48:44.622Z,18.68
2022-12-16T06:51:29.924Z,18.68
2022-12-16T06:54:14.820Z,18.70
2022-12-16T06:57:00.199Z,18.68
2022-12-16T06:59:45.174Z,18.68
2022-12-16T07:02:31.060Z,18.61
2022-12-16T07:05:16.292Z,18.69
2022-12-16T07:08:10.617Z,18.68
2022-12-16T07:11:02.318Z,18.67
2022-12-16T07:13:54.366Z,18.68
2022-12-16T07:16:39.397Z,18.69
2022-12-16T07:19:24.654Z,18.69
2022-12-16T07:22:09.903Z,18.52
2022-12-16T07:24:55.075Z,18.57
2022-12-16T07:27:40.403Z,18.68
2022-12-16T07:30:27.477Z,18.69
2022-12-16T07:33:12.522Z,18.67
2022-12-16T07:36:01.461Z,18.69
2022-12-16T07:38:46.684Z,18.69
2022-12-16T07:41:31.691Z,18.70
2022-12-16T07:44:16.868Z,18.68
2022-12-16T07:47:02.121Z,18.69
2022-12-16T07:49:47.407Z,18.70
2022-12-16T07:52:32.456Z,18.72
2022-12-16T07:55:17.859Z,18.63
2022-12-16T07:58:08.656Z,18.63
2022-12-16T08:00:53.846Z,18.71
2022-12-16T08:03:41.775Z,18.61
2022-12-16T08:06:27.748Z,18.69
2022-12-16T08:09:13.407Z,18.64
2022-12-16T08:11:58.781Z,18.67
2022-12-16T08:14:43.956Z,18.68
2022-12-16T08:17:28.930Z,18.67
2022-12-16T08:20:14.249Z,18.65
2022-12-16T08:22:59.838Z,18.66
2022-12-16T08:25:45.063Z,18.65
2022-12-16T08:28:30.179Z,18.66
2022-12-16T08:31:15.208Z,18.64
2022-12-16T08:34:00.474Z,18.65
2022-12-16T08:36:45.686Z,18.65
2022-12-16T08:39:35.199Z,18.64
2022-12-16T08:42:20.095Z,18.62
2022-12-16T08:45:05.424Z,18.64
2022-12-16T08:47:50.648Z,18.63
2022-12-16T08:50:35.965Z,18.63
2022-12-16T08:53:21.177Z,18.64
2022-12-16T08:56:06.690Z,18.64
2022-12-16T08:58:51.854Z,18.65
2022-12-16T09:01:37.865Z,18.65
2022-12-16T09:04:23.485Z,18.68
2022-12-16T09:07:08.712Z,18.69
2022-12-16T09:09:54.138Z,18.71
2022-12-16T09:12:39.605Z,18.72
2022-12-16T09:17:44.414Z,18.75
2022-12-16T09:20:29.993Z,18.67
2022-12-16T09:23:15.360Z,18.71
2022-12-16T09:26:00.612Z,18.73
2022-12-16T09:28:47.507Z,18.81
2022-12-16T09:31:32.421Z,18.82
2022-12-16T09:34:17.563Z,18.83
2022-12-16T09:37:02.960Z,18.85
2022-12-16T09:39:47.881Z,18.87
2022-12-16T09:43:01.261Z,18.88
2022-12-16T09:46:04.568Z,18.89
2022-12-16T09:49:15.611Z,18.90
2022-12-16T09:52:02.551Z,18.89
2022-12-16T09:54:52.391Z,18.93
2022-12-16T09:57:39.225Z,18.95
2022-12-16T10:00:36.547Z,18.95
2022-12-16T10:03:31.650Z,18.95
2022-12-16T10:06:36.004Z,19.00
2022-12-16T10:09:26.859Z,19.00
2022-12-16T10:12:17.836Z,19.03
2022-12-16T10:15:13.410Z,19.04
2022-12-16T10:18:02.680Z,19.05
2022-12-16T10:20:58.550Z,19.05
2022-12-16T10:24:09.692Z,19.07
2022-12-16T10:27:10.141Z,19.07
2022-12-16T10:30:01.860Z,19.07
2022-12-16T10:33:05.150Z,19.09
2022-12-16T10:36:05.725Z,19.09
2022-12-16T10:39:02.177Z,19.09
2022-12-16T10:41:53.196Z,19.09
2022-12-16T10:44:41.739Z,19.11
2022-12-16T10:47:29.274Z,19.03
2022-12-16T10:50:15.727Z,19.11
2022-12-16T10:53:37.868Z,19.06
2022-12-16T10:56:51.403Z,19.15
2022-12-16T10:59:36.686Z,19.16
2022-12-16T11:02:35.345Z,19.17
2022-12-16T11:05:20.967Z,19.13
2022-12-16T11:08:05.882Z,19.18
2022-12-16T11:10:56.262Z,19.18
2022-12-16T11:13:55.150Z,19.20
2022-12-16T11:16:45.482Z,19.22
2022-12-16T11:19:39.978Z,19.22
2022-12-16T11:22:37.848Z,19.23
2022-12-16T11:25:39.382Z,19.23
2022-12-16T11:28:31.651Z,19.17
2022-12-16T11:31:20.460Z,19.29
2022-12-16T11:34:07.586Z,19.33
2022-12-16T11:36:56.258Z,19.35
2022-12-16T11:39:45.061Z,19.37
2022-12-16T11:42:46.040Z,19.39
2022-12-16T11:45:42.207Z,19.35
2022-12-16T11:48:32.724Z,19.43
2022-12-16T11:51:20.391Z,19.44
2022-12-16T11:54:10.815Z,19.46
2022-12-16T11:57:00.116Z,19.46
2022-12-16T11:59:58.111Z,19.48
2022-12-16T12:04:59.659Z,19.52
2022-12-16T12:08:03.734Z,19.54
2022-12-16T12:11:04.108Z,19.56
2022-12-16T12:13:52.497Z,19.56
2022-12-16T12:17:10.258Z,19.59
2022-12-16T12:20:17.524Z,19.60
2022-12-16T12:23:02.633Z,19.60
2022-12-16T12:26:23.517Z,19.62
2022-12-16T12:29:26.889Z,19.63
2022-12-16T12:32:36.764Z,19.63
2022-12-16T12:35:53.186Z,19.64
2022-12-16T12:38:56.158Z,19.64
2022-12-16T12:42:07.892Z,19.64
2022-12-16T12:45:04.994Z,19.66
2022-12-16T12:47:54.746Z,19.67
2022-12-16T12:50:55.475Z,19.67
2022-12-16T12:53:53.840Z,19.68
2022-12-16T12:56:42.503Z,19.68
2022-12-16T12:59:38.039Z,19.68
2022-12-16T13:02:30.531Z,19.69
2022-12-16T13:05:21.115Z,19.70
2022-12-16T13:08:09.791Z,19.70
2022-12-16T13:10:56.248Z,19.65
2022-12-16T13:13:49.066Z,19.69
2022-12-16T13:16:53.399Z,19.70
2022-12-16T13:19:48.015Z,19.69
2022-12-16T13:22:54.503Z,19.69
2022-12-16T13:25:55.398Z,19.70
2022-12-16T13:28:49.328Z,19.70
2022-12-16T13:31:35.536Z,19.71
2022-12-16T13:34:48.692Z,19.72
2022-12-16T13:37:42.438Z,19.72
2022-12-16T13:40:38.332Z,19.73
2022-12-16T13:43:24.485Z,19.73
2022-12-16T13:46:15.981Z,19.74
2022-12-16T13:49:01.871Z,19.74
2022-12-16T13:51:55.987Z,19.74
2022-12-16T13:54:48.516Z,19.75
2022-12-16T13:57:37.105Z,19.74
2022-12-16T14:00:24.244Z,19.78
2022-12-16T14:03:11.604Z,19.77
2022-12-16T14:06:02.028Z,19.80
2022-12-16T14:08:54.624Z,19.81
2022-12-16T14:11:58.951Z,19.81
2022-12-16T14:15:00.269Z,19.82
2022-12-16T14:18:31.280Z,19.83
2022-12-16T14:21:21.076Z,19.83
2022-12-16T14:24:12.460Z,19.83
2022-12-16T14:26:58.760Z,19.86
2022-12-16T14:29:49.065Z,19.86
2022-12-16T14:32:52.374Z,19.88
2022-12-16T14:35:37.601Z,19.89
2022-12-16T14:39:05.648Z,19.89
2022-12-16T14:41:51.003Z,19.89
2022-12-16T14:44:39.373Z,19.88
2022-12-16T14:47:24.878Z,19.88
2022-12-16T14:50:13.058Z,19.88
2022-12-16T14:52:58.763Z,19.88
2022-12-16T14:55:50.623Z,19.86
2022-12-16T14:58:38.589Z,19.88
2022-12-16T15:01:39.105Z,19.87
2022-12-16T15:04:32.365Z,19.83
2022-12-16T15:07:17.904Z,19.87
2022-12-16T15:10:07.039Z,19.84
2022-12-16T15:13:02.169Z,19.86
2022-12-16T15:16:07.523Z,19.85
2022-12-16T15:18:57.620Z,19.85
2022-12-16T15:21:42.675Z,19.77
2022-12-16T15:24:37.080Z,19.84
2022-12-16T15:27:33.727Z,19.82
2022-12-16T15:30:19.173Z,19.83
2022-12-16T15:33:11.411Z,19.81
2022-12-16T15:35:57.540Z,19.81
2022-12-16T15:38:51.790Z,19.80
2022-12-16T15:41:49.501Z,19.61
2022-12-16T15:44:41.267Z,19.79
2022-12-16T15:47:50.498Z,19.77
2022-12-16T15:50:39.924Z,19.78
2022-12-16T15:53:47.217Z,19.76
2022-12-16T15:56:41.476Z,19.76
2022-12-16T15:59:56.705Z,19.75
2022-12-16T16:02:48.032Z,19.75
2022-12-16T16:05:39.418Z,19.74
2022-12-16T16:08:24.806Z,19.73
2022-12-16T16:11:10.547Z,19.70
2022-12-16T16:13:59.347Z,19.72
2022-12-16T16:16:49.623Z,19.55
2022-12-16T16:19:45.365Z,19.71
2022-12-16T16:22:35.414Z,19.70
2022-12-16T16:25:20.574Z,19.71
2022-12-16T16:28:06.263Z,19.70
2022-12-16T16:30:51.444Z,19.70
2022-12-16T16:33:37.086Z,19.64
2022-12-16T16:36:33.233Z,19.71
2022-12-16T16:39:19.316Z,19.61
2022-12-16T16:42:04.347Z,19.70
2022-12-16T16:44:49.712Z,19.69
2022-12-16T16:50:06.557Z,19.70
2022-12-16T16:52:51.618Z,19.72
2022-12-16T16:55:39.307Z,19.71
2022-12-16T16:58:30.569Z,19.71
2022-12-16T17:01:15.904Z,19.70
2022-12-16T17:04:01.746Z,19.67
2022-12-16T17:06:46.815Z,19.69
2022-12-16T17:09:32.198Z,19.69
2022-12-16T17:12:18.584Z,19.61
2022-12-16T17:15:03.855Z,19.66
2022-12-16T17:17:48.974Z,19.67
2022-12-16T17:20:35.442Z,19.68
2022-12-16T17:23:20.718Z,19.67
2022-12-16T17:26:05.899Z,19.63
2022-12-16T17:28:51.127Z,19.66
2022-12-16T17:31:36.551Z,19.67
2022-12-16T17:34:21.776Z,19.66
2022-12-16T17:37:10.187Z,19.66
2022-12-16T17:39:55.381Z,19.59
2022-12-16T17:42:46.311Z,19.60
2022-12-16T17:45:32.224Z,19.65
2022-12-16T17:48:17.300Z,19.63
2022-12-16T17:53:19.314Z,19.61
2022-12-16T17:56:04.410Z,19.63
2022-12-16T17:59:05.966Z,19.66
2022-12-16T18:01:51.124Z,19.66
2022-12-16T18:04:36.476Z,19.64
2022-12-16T18:07:21.560Z,19.64
2022-12-16T18:10:06.437Z,19.53
2022-12-16T18:12:52.074Z,19.64
2022-12-16T18:15:37.631Z,19.61
2022-12-16T18:18:24.654Z,19.52
2022-12-16T18:21:10.184Z,19.62
2022-12-16T18:23:55.560Z,19.63
2022-12-16T18:26:43.568Z,19.61
2022-12-16T18:29:30.057Z,19.62
2022-12-16T18:32:15.339Z,19.33
2022-12-16T18:35:00.960Z,19.60
2022-12-16T18:37:46.275Z,19.49
2022-12-16T18:40:31.506Z,19.47
2022-12-16T18:43:17.924Z,19.59
2022-12-16T18:46:10.568Z,19.58
2022-12-16T18:48:56.151Z,19.57
2022-12-16T18:51:41.446Z,19.47
2022-12-16T18:54:26.637Z,19.57
2022-12-16T18:57:11.749Z,19.57
2022-12-16T18:59:57.036Z,19.57
2022-12-16T19:02:42.659Z,19.56
2022-12-16T19:05:27.898Z,19.52
2022-12-16T19:08:14.593Z,19.56
2022-12-16T19:10:59.746Z,19.55
2022-12-16T19:13:44.968Z,19.57
2022-12-16T19:16:30.264Z,19.56
2022-12-16T19:19:20.180Z,19.57
2022-12-16T19:22:06.464Z,19.57
2022-12-16T19:24:51.884Z,19.50
2022-12-16T19:27:37.368Z,19.59
2022-12-16T19:30:23.205Z,19.54
2022-12-16T19:33:08.401Z,19.60
2022-12-16T19:35:54.276Z,19.60
2022-12-16T19:38:42.193Z,19.62
2022-12-16T19:41:35.195Z,19.65
2022-12-16T19:44:23.791Z,19.64
2022-12-16T19:47:10.972Z,19.67
2022-12-16T19:49:56.339Z,19.69
2022-12-16T19:52:42.648Z,19.67
2022-12-16T19:55:30.033Z,19.71
2022-12-16T19:58:15.375Z,19.75
2022-12-16T20:01:00.676Z,19.76
2022-12-16T20:03:46.385Z,19.76
2022-12-16T20:06:33.878Z,19.67
2022-12-16T20:09:19.277Z,19.80
2022-12-16T20:12:04.884Z,19.79
2022-12-16T20:14:56.593Z,19.78
2022-12-16T20:17:41.930Z,19.80
2022-12-16T20:20:31.017Z,19.84
2022-12-16T20:23:16.674Z,19.83
2022-12-16T20:26:04.697Z,19.84
2022-12-16T20:28:53.083Z,19.79
2022-12-16T20:31:41.795Z,19.87
2022-12-16T20:34:39.094Z,19.87
2022-12-16T20:37:27.643Z,19.88
2022-12-16T20:40:13.038Z,19.88
2022-12-16T20:43:01.778Z,19.88
2022-12-16T20:45:47.207Z,19.85
2022-12-16T20:48:33.847Z,19.90
2022-12-16T20:51:26.488Z,19.90
2022-12-16T20:54:12.864Z,19.90
2022-12-16T20:56:58.606Z,19.88
2022-12-16T20:59:46.650Z,19.90
2022-12-16T21:02:39.664Z,19.91
2022-12-16T21:05:32.038Z,19.92
2022-12-16T21:08:17.557Z,19.91
2022-12-16T21:11:02.858Z,19.91
2022-12-16T21:13:49.376Z,19.89
2022-12-16T21:16:34.604Z,19.92
2022-12-16T21:19:19.804Z,19.92
2022-12-16T21:22:04.955Z,19.92
2022-12-16T21:24:50.000Z,19.92
2022-12-16T21:27:35.278Z,19.85
2022-12-16T21:30:20.929Z,19.92
2022-12-16T21:33:08.813Z,19.91
2022-12-16T21:35:56.083Z,19.82
2022-12-16T21:38:42.420Z,19.90
2022-12-16T21:41:28.057Z,19.90
2022-12-16T21:44:13.231Z,19.80
2022-12-16T21:46:58.449Z,19.90
2022-12-16T21:49:46.051Z,19.90
2022-12-16T21:52:31.079Z,19.90
2022-12-16T21:55:16.312Z,19.90
2022-12-16T21:58:02.115Z,19.89
2022-12-16T22:00:47.116Z,19.89
2022-12-16T22:03:32.440Z,19.85
2022-12-16T22:06:18.259Z,19.83
2022-12-16T22:09:03.408Z,19.79
2022-12-16T22:11:49.569Z,19.86
2022-12-16T22:14:35.008Z,19.89
2022-12-16T22:17:20.426Z,19.83
2022-12-16T22:20:05.848Z,19.82
2022-12-16T22:22:51.202Z,19.85
2022-12-16T22:25:37.084Z,19.77
2022-12-16T22:28:22.067Z,19.80
2022-12-16T22:31:15.979Z,19.77
2022-12-16T22:34:02.353Z,19.83
2022-12-16T22:36:49.143Z,19.82
2022-12-16T22:39:34.407Z,19.80
2022-12-16T22:42:19.748Z,19.79
2022-12-16T22:45:04.974Z,19.78
2022-12-16T22:47:50.756Z,19.78
2022-12-16T22:50:50.831Z,19.80
2022-12-16T22:53:36.774Z,19.79
2022-12-16T22:56:35.665Z,19.80
2022-12-16T22:59:20.695Z,19.80
2022-12-16T23:02:06.002Z,19.79
2022-12-16T23:04:51.450Z,19.79
2022-12-16T23:07:37.219Z,19.79
2022-12-16T23:10:22.868Z,19.75
2022-12-16T23:13:07.848Z,19.78
2022-12-16T23:15:56.575Z,19.78
2022-12-16T23:18:41.940Z,19.78
2022-12-16T23:21:33.875Z,19.78
2022-12-16T23:24:19.162Z,19.74
2022-12-16T23:27:04.327Z,19.72
2022-12-16T23:29:49.434Z,19.74
2022-12-16T23:35:25.167Z,19.76
2022-12-16T23:40:23.584Z,19.75
2022-12-16T23:43:11.738Z,19.75
2022-12-16T23:45:57.105Z,19.63
2022-12-16T23:48:42.227Z,19.67
2022-12-16T23:51:27.486Z,19.75
2022-12-16T23:54:13.006Z,19.72
2022-12-16T23:56:58.200Z,19.75
2022-12-16T23:59:43.436Z,19.74
